CCJ weather

Calicut International Airport
Calicut, Kerala, India

Public forecast

Using degrees Celsius for public forecast. Weather courtesy of forecast.io.

METAR (pilot weather report)

Retrieved 2019/05/24 06:30 UTC (5 minutes ago):

VOCL 240630Z 29005KT 7000 SCT012 SCT018 BKN080 33/26 Q1009 NOSIG

TAF (pilot weather forecast)

Retrieved 2019/05/24 06:00 UTC (35 minutes ago):

TAF VOCL 240500Z 2406/2512 25005KT 6000 FEW015 BKN090 TEMPO 2408/2412 27010KT 3000 TSRA RA SCT015 FEW025CB BKN080 BECMG 2415/2417 31005KT 4000 SCT015 BKN080 BECMG 2504/2506 25010KT 6000 SCT015 BKN090 TEMPO 2508/2512 29010KT 3000 TSRA RA SCT015 FEW025CB BKN090